Página principal
METAR-TAF:

METAR-TAF

Aeroportos :

Orsk, Rússia

latitude: 51-04-18N, longitude: 058-35-48E, altura: 277 m

Observação actual do tempo

O boletim foi feito há 47 minutos, às 02:00 UTC
Vento 8 kt de norte
Temperatura -6°C
Humidade 62%
Pressão 1021 hPa
Visibilidade 10 km ou mais
sem nuvens abaixo de 1500 metros e sem cumulonimbus

METAR: UWOR 190200Z 01004MPS CAVOK M06/M12 Q1021 R07/CLRD65 NOSIG RMK QFE741/0988

Hora: 07:47 (02:47 UTC)

Previsão

O boletim foi feito há 49 minutos, às 01:58 UTC
Previsão válida de 19 às 03 UTC a 19 às 12 UTC
Vento 14 kt de norte com rajadas de 23 kt
Visibilidade 10 km ou mais
Nuvens dispersasa uma altura de 1500 ft
Temporariamente
de 19 às 03 UTC a 19 às 12 UTC
Vento 17 kt de nor-nordeste com rajadas de 29 kt

TAF: UWOR 190158Z 1903/1912 01007G12MPS 9999 SCT015 TEMPO 1903/1912 03009G15MPS

Observações e previsões do tempo de mais de 4000 aeroportos (mensagens METAR e TAF).

As estações disponíveis são os pontos amarelos e vermelhos sobre o mapa.

Mova o rato sobre o mapa para ver o nome da estação.

Depois clique no ponto para visualizar as observações e previsões meteorológicas.

Para alterar o mapa : clique nos botões verdes com uma cruz preta para aumentar o zoom; no botão verde com uma pitada de zoom; ou nas setas verdes para mapas adjacentes.


METAR-TAF: